« Back
NWS Peachtree City, Ga » Text Product » MCN Terminal Aerodrome Forecast


Printer-friendly Version
Current Version              Previous Versions:   1  2  3  4  5  6  7  8  9  

Terminal Aerodrome Forecast

175
FTUS42 KFFC 222000 AAA
TAFMCN
TAF AMD
KMCN 222006Z 2220/2318 34005KT P6SM VCSH BKN060
      TEMPO 2220/2221 5SM -SHRA BKN035
     FM222200 02006KT P6SM FEW040 SCT250
     FM230000 03004KT P6SM FEW250
     FM230600 04005KT P6SM FEW150
     FM231400 08009KT P6SM FEW050=

USA.gov is the U.S. government's official web portal to all federal, state and local government web resources and services.